sensor_id;sensor_type;location;lat;lon;timestamp;P1;durP1;ratioP1;P2;durP2;ratioP2
51266;SDS011;37338;47.426;19.204;2023-12-20T00:02:17;98.20;;;21.57;;
51266;SDS011;37338;47.426;19.204;2023-12-20T00:04:42;109.67;;;22.33;;
51266;SDS011;37338;47.426;19.204;2023-12-20T00:07:08;76.60;;;24.70;;
51266;SDS011;37338;47.426;19.204;2023-12-20T00:09:33;112.47;;;24.23;;
51266;SDS011;37338;47.426;19.204;2023-12-20T00:11:58;94.73;;;25.40;;
51266;SDS011;37338;47.426;19.204;2023-12-20T00:14:24;82.47;;;22.90;;
51266;SDS011;37338;47.426;19.204;2023-12-20T00:16:49;87.00;;;21.90;;
51266;SDS011;37338;47.426;19.204;2023-12-20T00:19:14;82.60;;;23.60;;
51266;SDS011;37338;47.426;19.204;2023-12-20T00:21:39;98.90;;;22.97;;
51266;SDS011;37338;47.426;19.204;2023-12-20T00:24:05;70.37;;;20.17;;
51266;SDS011;37338;47.426;19.204;2023-12-20T00:26:30;68.10;;;23.10;;
51266;SDS011;37338;47.426;19.204;2023-12-20T00:28:55;95.00;;;24.27;;
51266;SDS011;37338;47.426;19.204;2023-12-20T00:31:21;135.03;;;24.13;;
51266;SDS011;37338;47.426;19.204;2023-12-20T00:33:46;68.27;;;21.73;;
51266;SDS011;37338;47.426;19.204;2023-12-20T00:36:12;132.10;;;22.70;;
51266;SDS011;37338;47.426;19.204;2023-12-20T00:38:37;94.63;;;24.57;;
51266;SDS011;37338;47.426;19.204;2023-12-20T00:41:03;123.37;;;22.57;;
51266;SDS011;37338;47.426;19.204;2023-12-20T00:43:28;139.43;;;24.87;;
51266;SDS011;37338;47.426;19.204;2023-12-20T00:45:53;121.87;;;23.90;;
51266;SDS011;37338;47.426;19.204;2023-12-20T00:48:20;134.03;;;23.57;;
51266;SDS011;37338;47.426;19.204;2023-12-20T00:50:45;121.93;;;27.43;;
51266;SDS011;37338;47.426;19.204;2023-12-20T00:53:10;87.50;;;25.30;;
51266;SDS011;37338;47.426;19.204;2023-12-20T00:55:36;127.20;;;27.37;;
51266;SDS011;37338;47.426;19.204;2023-12-20T00:58:01;96.30;;;25.27;;
51266;SDS011;37338;47.426;19.204;2023-12-20T01:00:26;167.63;;;28.60;;
51266;SDS011;37338;47.426;19.204;2023-12-20T01:02:52;184.07;;;25.47;;
51266;SDS011;37338;47.426;19.204;2023-12-20T01:05:17;126.13;;;25.20;;
51266;SDS011;37338;47.426;19.204;2023-12-20T01:07:43;103.03;;;26.50;;
51266;SDS011;37338;47.426;19.204;2023-12-20T01:10:08;105.20;;;25.37;;
51266;SDS011;37338;47.426;19.204;2023-12-20T01:12:34;129.50;;;26.27;;
51266;SDS011;37338;47.426;19.204;2023-12-20T01:15:00;79.40;;;25.10;;
51266;SDS011;37338;47.426;19.204;2023-12-20T01:17:26;79.40;;;22.87;;
51266;SDS011;37338;47.426;19.204;2023-12-20T01:19:51;102.13;;;24.93;;
51266;SDS011;37338;47.426;19.204;2023-12-20T01:22:16;121.43;;;24.23;;
51266;SDS011;37338;47.426;19.204;2023-12-20T01:24:42;77.33;;;25.17;;
51266;SDS011;37338;47.426;19.204;2023-12-20T01:27:07;98.90;;;26.93;;
51266;SDS011;37338;47.426;19.204;2023-12-20T01:29:33;108.07;;;26.63;;
51266;SDS011;37338;47.426;19.204;2023-12-20T01:31:58;95.43;;;25.77;;
51266;SDS011;37338;47.426;19.204;2023-12-20T01:34:23;107.47;;;29.47;;
51266;SDS011;37338;47.426;19.204;2023-12-20T01:36:49;91.10;;;28.00;;
51266;SDS011;37338;47.426;19.204;2023-12-20T01:39:14;104.23;;;27.60;;
51266;SDS011;37338;47.426;19.204;2023-12-20T01:41:39;96.73;;;28.83;;
51266;SDS011;37338;47.426;19.204;2023-12-20T01:44:05;143.57;;;34.93;;
51266;SDS011;37338;47.426;19.204;2023-12-20T01:46:30;203.70;;;36.63;;
51266;SDS011;37338;47.426;19.204;2023-12-20T01:48:55;211.63;;;40.30;;
51266;SDS011;37338;47.426;19.204;2023-12-20T01:51:21;256.23;;;42.03;;
51266;SDS011;37338;47.426;19.204;2023-12-20T01:53:46;180.60;;;38.53;;
51266;SDS011;37338;47.426;19.204;2023-12-20T01:56:12;178.67;;;36.97;;
51266;SDS011;37338;47.426;19.204;2023-12-20T01:58:38;145.00;;;41.53;;
51266;SDS011;37338;47.426;19.204;2023-12-20T02:01:06;269.27;;;42.70;;
51266;SDS011;37338;47.426;19.204;2023-12-20T02:03:31;144.90;;;37.97;;
51266;SDS011;37338;47.426;19.204;2023-12-20T02:05:57;141.87;;;39.33;;
51266;SDS011;37338;47.426;19.204;2023-12-20T02:08:22;140.83;;;38.07;;
51266;SDS011;37338;47.426;19.204;2023-12-20T02:10:48;179.17;;;38.37;;
51266;SDS011;37338;47.426;19.204;2023-12-20T02:13:13;165.97;;;38.80;;
51266;SDS011;37338;47.426;19.204;2023-12-20T02:15:39;190.27;;;38.00;;
51266;SDS011;37338;47.426;19.204;2023-12-20T02:18:06;156.17;;;39.67;;
51266;SDS011;37338;47.426;19.204;2023-12-20T02:20:32;119.30;;;35.73;;
51266;SDS011;37338;47.426;19.204;2023-12-20T02:22:57;131.20;;;37.10;;
51266;SDS011;37338;47.426;19.204;2023-12-20T02:25:22;157.47;;;37.73;;
51266;SDS011;37338;47.426;19.204;2023-12-20T02:27:48;143.50;;;38.13;;
51266;SDS011;37338;47.426;19.204;2023-12-20T02:30:14;158.13;;;36.43;;
51266;SDS011;37338;47.426;19.204;2023-12-20T02:32:39;173.40;;;40.03;;
51266;SDS011;37338;47.426;19.204;2023-12-20T02:35:05;323.00;;;42.37;;
51266;SDS011;37338;47.426;19.204;2023-12-20T02:37:30;119.67;;;38.93;;
51266;SDS011;37338;47.426;19.204;2023-12-20T02:39:55;235.03;;;38.17;;
51266;SDS011;37338;47.426;19.204;2023-12-20T02:42:21;149.57;;;38.23;;
51266;SDS011;37338;47.426;19.204;2023-12-20T02:44:46;110.17;;;34.43;;
51266;SDS011;37338;47.426;19.204;2023-12-20T02:47:11;132.87;;;35.57;;
51266;SDS011;37338;47.426;19.204;2023-12-20T02:49:37;198.00;;;35.53;;
51266;SDS011;37338;47.426;19.204;2023-12-20T02:52:02;170.30;;;33.63;;
51266;SDS011;37338;47.426;19.204;2023-12-20T02:54:28;166.13;;;32.87;;
51266;SDS011;37338;47.426;19.204;2023-12-20T02:56:53;202.03;;;38.57;;
51266;SDS011;37338;47.426;19.204;2023-12-20T02:59:18;137.47;;;33.23;;
51266;SDS011;37338;47.426;19.204;2023-12-20T03:01:44;118.97;;;33.50;;
51266;SDS011;37338;47.426;19.204;2023-12-20T03:04:10;147.87;;;34.77;;
51266;SDS011;37338;47.426;19.204;2023-12-20T03:06:36;178.13;;;33.20;;
51266;SDS011;37338;47.426;19.204;2023-12-20T03:09:01;116.10;;;35.40;;
51266;SDS011;37338;47.426;19.204;2023-12-20T03:11:27;143.33;;;37.03;;
51266;SDS011;37338;47.426;19.204;2023-12-20T03:13:53;113.97;;;34.03;;
51266;SDS011;37338;47.426;19.204;2023-12-20T03:16:18;110.77;;;32.67;;
51266;SDS011;37338;47.426;19.204;2023-12-20T03:18:43;119.83;;;31.67;;
51266;SDS011;37338;47.426;19.204;2023-12-20T03:21:09;132.63;;;31.67;;
51266;SDS011;37338;47.426;19.204;2023-12-20T03:23:34;214.63;;;36.43;;
51266;SDS011;37338;47.426;19.204;2023-12-20T03:25:59;108.63;;;32.53;;
51266;SDS011;37338;47.426;19.204;2023-12-20T03:28:25;176.47;;;30.73;;
51266;SDS011;37338;47.426;19.204;2023-12-20T03:30:51;177.53;;;32.93;;
51266;SDS011;37338;47.426;19.204;2023-12-20T03:33:16;111.97;;;31.17;;
51266;SDS011;37338;47.426;19.204;2023-12-20T03:35:42;203.17;;;33.43;;
51266;SDS011;37338;47.426;19.204;2023-12-20T03:38:07;206.40;;;28.97;;
51266;SDS011;37338;47.426;19.204;2023-12-20T03:40:32;139.27;;;30.70;;
51266;SDS011;37338;47.426;19.204;2023-12-20T03:42:58;220.20;;;34.23;;
51266;SDS011;37338;47.426;19.204;2023-12-20T03:45:23;141.37;;;34.70;;
51266;SDS011;37338;47.426;19.204;2023-12-20T03:47:48;137.63;;;35.50;;
51266;SDS011;37338;47.426;19.204;2023-12-20T03:50:14;134.60;;;35.67;;
51266;SDS011;37338;47.426;19.204;2023-12-20T03:52:40;117.97;;;33.10;;
51266;SDS011;37338;47.426;19.204;2023-12-20T03:55:05;119.37;;;39.00;;
51266;SDS011;37338;47.426;19.204;2023-12-20T03:57:31;111.07;;;35.73;;
51266;SDS011;37338;47.426;19.204;2023-12-20T03:59:56;175.30;;;38.13;;
51266;SDS011;37338;47.426;19.204;2023-12-20T04:02:21;112.47;;;37.23;;
51266;SDS011;37338;47.426;19.204;2023-12-20T04:04:47;92.13;;;33.90;;
51266;SDS011;37338;47.426;19.204;2023-12-20T04:07:12;117.23;;;38.53;;
51266;SDS011;37338;47.426;19.204;2023-12-20T04:09:37;102.97;;;38.03;;
51266;SDS011;37338;47.426;19.204;2023-12-20T04:12:03;116.17;;;34.80;;
51266;SDS011;37338;47.426;19.204;2023-12-20T04:14:28;146.13;;;37.00;;
51266;SDS011;37338;47.426;19.204;2023-12-20T04:16:53;74.80;;;33.90;;
51266;SDS011;37338;47.426;19.204;2023-12-20T04:19:19;86.73;;;34.07;;
51266;SDS011;37338;47.426;19.204;2023-12-20T04:21:44;101.33;;;29.67;;
51266;SDS011;37338;47.426;19.204;2023-12-20T04:24:09;138.47;;;35.37;;
51266;SDS011;37338;47.426;19.204;2023-12-20T04:26:35;104.20;;;34.33;;
51266;SDS011;37338;47.426;19.204;2023-12-20T04:29:00;101.53;;;33.90;;
51266;SDS011;37338;47.426;19.204;2023-12-20T04:31:25;93.33;;;34.27;;
51266;SDS011;37338;47.426;19.204;2023-12-20T04:33:51;102.90;;;33.17;;
51266;SDS011;37338;47.426;19.204;2023-12-20T04:36:16;122.77;;;34.93;;
51266;SDS011;37338;47.426;19.204;2023-12-20T04:38:41;102.73;;;34.03;;
51266;SDS011;37338;47.426;19.204;2023-12-20T04:41:07;127.13;;;34.73;;
51266;SDS011;37338;47.426;19.204;2023-12-20T04:43:32;124.13;;;33.73;;
51266;SDS011;37338;47.426;19.204;2023-12-20T04:45:57;102.63;;;33.53;;
51266;SDS011;37338;47.426;19.204;2023-12-20T04:48:22;124.30;;;35.27;;
51266;SDS011;37338;47.426;19.204;2023-12-20T04:50:48;127.43;;;33.37;;
51266;SDS011;37338;47.426;19.204;2023-12-20T04:53:13;141.87;;;33.97;;
51266;SDS011;37338;47.426;19.204;2023-12-20T04:55:38;116.17;;;34.50;;
51266;SDS011;37338;47.426;19.204;2023-12-20T04:58:04;109.57;;;35.60;;
51266;SDS011;37338;47.426;19.204;2023-12-20T05:00:29;138.27;;;33.83;;
51266;SDS011;37338;47.426;19.204;2023-12-20T05:02:55;99.10;;;34.37;;
51266;SDS011;37338;47.426;19.204;2023-12-20T05:05:20;97.53;;;37.20;;
51266;SDS011;37338;47.426;19.204;2023-12-20T05:07:45;109.20;;;38.73;;
51266;SDS011;37338;47.426;19.204;2023-12-20T05:10:11;113.30;;;35.60;;
51266;SDS011;37338;47.426;19.204;2023-12-20T05:12:36;103.50;;;36.83;;
51266;SDS011;37338;47.426;19.204;2023-12-20T05:15:01;115.90;;;34.93;;
51266;SDS011;37338;47.426;19.204;2023-12-20T05:17:27;98.20;;;34.60;;
51266;SDS011;37338;47.426;19.204;2023-12-20T05:19:52;128.20;;;36.30;;
51266;SDS011;37338;47.426;19.204;2023-12-20T05:22:18;133.87;;;34.20;;
51266;SDS011;37338;47.426;19.204;2023-12-20T05:24:44;158.93;;;37.47;;
51266;SDS011;37338;47.426;19.204;2023-12-20T05:27:09;121.43;;;34.87;;
51266;SDS011;37338;47.426;19.204;2023-12-20T05:29:34;118.13;;;34.10;;
51266;SDS011;37338;47.426;19.204;2023-12-20T05:32:00;159.27;;;34.83;;
51266;SDS011;37338;47.426;19.204;2023-12-20T05:34:25;124.07;;;34.83;;
51266;SDS011;37338;47.426;19.204;2023-12-20T05:36:50;107.73;;;34.07;;
51266;SDS011;37338;47.426;19.204;2023-12-20T05:39:15;129.27;;;38.43;;
51266;SDS011;37338;47.426;19.204;2023-12-20T05:41:41;152.60;;;35.37;;
51266;SDS011;37338;47.426;19.204;2023-12-20T05:44:06;188.13;;;34.47;;
51266;SDS011;37338;47.426;19.204;2023-12-20T05:46:31;151.60;;;33.80;;
51266;SDS011;37338;47.426;19.204;2023-12-20T05:48:57;207.73;;;34.27;;
51266;SDS011;37338;47.426;19.204;2023-12-20T05:51:22;134.57;;;34.07;;
51266;SDS011;37338;47.426;19.204;2023-12-20T05:53:47;131.47;;;33.50;;
51266;SDS011;37338;47.426;19.204;2023-12-20T05:56:14;173.80;;;37.83;;
51266;SDS011;37338;47.426;19.204;2023-12-20T05:58:40;101.87;;;33.97;;
51266;SDS011;37338;47.426;19.204;2023-12-20T06:01:06;133.63;;;34.77;;
51266;SDS011;37338;47.426;19.204;2023-12-20T06:03:33;120.77;;;34.23;;
51266;SDS011;37338;47.426;19.204;2023-12-20T06:05:58;104.70;;;35.80;;
51266;SDS011;37338;47.426;19.204;2023-12-20T06:08:25;163.37;;;34.80;;
51266;SDS011;37338;47.426;19.204;2023-12-20T06:10:50;100.27;;;35.57;;
51266;SDS011;37338;47.426;19.204;2023-12-20T06:13:16;123.83;;;34.60;;
51266;SDS011;37338;47.426;19.204;2023-12-20T06:15:41;164.67;;;36.33;;
51266;SDS011;37338;47.426;19.204;2023-12-20T06:18:07;202.87;;;38.13;;
51266;SDS011;37338;47.426;19.204;2023-12-20T06:20:32;171.80;;;42.43;;
51266;SDS011;37338;47.426;19.204;2023-12-20T06:22:58;281.67;;;39.77;;
51266;SDS011;37338;47.426;19.204;2023-12-20T06:25:23;114.63;;;36.33;;
51266;SDS011;37338;47.426;19.204;2023-12-20T06:27:48;117.13;;;35.90;;
51266;SDS011;37338;47.426;19.204;2023-12-20T06:30:15;119.10;;;35.23;;
51266;SDS011;37338;47.426;19.204;2023-12-20T06:32:40;197.20;;;34.13;;
51266;SDS011;37338;47.426;19.204;2023-12-20T06:35:07;128.87;;;38.07;;
51266;SDS011;37338;47.426;19.204;2023-12-20T06:37:33;150.90;;;35.20;;
51266;SDS011;37338;47.426;19.204;2023-12-20T06:39:58;243.60;;;33.60;;
51266;SDS011;37338;47.426;19.204;2023-12-20T06:42:24;292.47;;;35.53;;
51266;SDS011;37338;47.426;19.204;2023-12-20T06:44:49;246.17;;;36.80;;
51266;SDS011;37338;47.426;19.204;2023-12-20T06:47:15;227.70;;;33.50;;
51266;SDS011;37338;47.426;19.204;2023-12-20T06:49:40;165.27;;;33.10;;
51266;SDS011;37338;47.426;19.204;2023-12-20T06:52:06;245.00;;;37.27;;
51266;SDS011;37338;47.426;19.204;2023-12-20T06:54:31;213.50;;;35.93;;
51266;SDS011;37338;47.426;19.204;2023-12-20T06:56:56;239.57;;;35.77;;
51266;SDS011;37338;47.426;19.204;2023-12-20T06:59:22;241.30;;;33.83;;
51266;SDS011;37338;47.426;19.204;2023-12-20T07:01:47;114.37;;;33.73;;
51266;SDS011;37338;47.426;19.204;2023-12-20T07:04:13;118.10;;;35.30;;
51266;SDS011;37338;47.426;19.204;2023-12-20T07:06:39;133.60;;;38.77;;
51266;SDS011;37338;47.426;19.204;2023-12-20T07:09:04;120.73;;;35.70;;
51266;SDS011;37338;47.426;19.204;2023-12-20T07:11:30;133.97;;;36.53;;
51266;SDS011;37338;47.426;19.204;2023-12-20T07:13:55;93.37;;;33.63;;
51266;SDS011;37338;47.426;19.204;2023-12-20T07:16:20;112.03;;;35.73;;
51266;SDS011;37338;47.426;19.204;2023-12-20T07:18:46;125.40;;;35.73;;
51266;SDS011;37338;47.426;19.204;2023-12-20T07:21:12;88.53;;;34.37;;
51266;SDS011;37338;47.426;19.204;2023-12-20T07:23:37;137.30;;;35.97;;
51266;SDS011;37338;47.426;19.204;2023-12-20T07:26:02;125.93;;;35.63;;
51266;SDS011;37338;47.426;19.204;2023-12-20T07:28:29;96.33;;;33.90;;
51266;SDS011;37338;47.426;19.204;2023-12-20T07:30:54;118.07;;;36.67;;
51266;SDS011;37338;47.426;19.204;2023-12-20T07:33:19;94.00;;;32.77;;
51266;SDS011;37338;47.426;19.204;2023-12-20T07:35:45;187.53;;;34.30;;
51266;SDS011;37338;47.426;19.204;2023-12-20T07:38:10;91.60;;;30.30;;
51266;SDS011;37338;47.426;19.204;2023-12-20T07:40:37;96.50;;;28.53;;
51266;SDS011;37338;47.426;19.204;2023-12-20T07:43:03;103.33;;;31.37;;
51266;SDS011;37338;47.426;19.204;2023-12-20T07:45:28;106.30;;;32.00;;
51266;SDS011;37338;47.426;19.204;2023-12-20T07:47:53;104.57;;;32.00;;
51266;SDS011;37338;47.426;19.204;2023-12-20T07:50:19;132.57;;;31.73;;
51266;SDS011;37338;47.426;19.204;2023-12-20T07:52:44;92.63;;;33.63;;
51266;SDS011;37338;47.426;19.204;2023-12-20T07:55:10;101.10;;;33.47;;
51266;SDS011;37338;47.426;19.204;2023-12-20T07:57:35;106.13;;;34.13;;
51266;SDS011;37338;47.426;19.204;2023-12-20T08:00:01;83.33;;;36.03;;
51266;SDS011;37338;47.426;19.204;2023-12-20T08:02:26;89.73;;;35.50;;
51266;SDS011;37338;47.426;19.204;2023-12-20T08:04:51;128.63;;;41.37;;
51266;SDS011;37338;47.426;19.204;2023-12-20T08:07:17;106.37;;;34.10;;
51266;SDS011;37338;47.426;19.204;2023-12-20T08:09:42;207.97;;;41.10;;
51266;SDS011;37338;47.426;19.204;2023-12-20T08:12:08;156.07;;;39.20;;
51266;SDS011;37338;47.426;19.204;2023-12-20T08:14:34;182.77;;;38.37;;
51266;SDS011;37338;47.426;19.204;2023-12-20T08:16:59;182.37;;;34.73;;
51266;SDS011;37338;47.426;19.204;2023-12-20T08:19:25;148.60;;;36.73;;
51266;SDS011;37338;47.426;19.204;2023-12-20T08:21:50;119.47;;;32.47;;
51266;SDS011;37338;47.426;19.204;2023-12-20T08:24:15;112.77;;;36.43;;
51266;SDS011;37338;47.426;19.204;2023-12-20T08:26:41;98.00;;;33.77;;
51266;SDS011;37338;47.426;19.204;2023-12-20T08:29:06;156.47;;;36.07;;
51266;SDS011;37338;47.426;19.204;2023-12-20T08:31:31;110.97;;;35.23;;
51266;SDS011;37338;47.426;19.204;2023-12-20T08:33:57;152.63;;;36.90;;
51266;SDS011;37338;47.426;19.204;2023-12-20T08:36:22;122.73;;;35.03;;
51266;SDS011;37338;47.426;19.204;2023-12-20T08:38:48;132.23;;;35.53;;
51266;SDS011;37338;47.426;19.204;2023-12-20T08:41:14;101.87;;;32.70;;
51266;SDS011;37338;47.426;19.204;2023-12-20T08:43:40;138.07;;;34.77;;
51266;SDS011;37338;47.426;19.204;2023-12-20T08:46:06;99.07;;;32.60;;
51266;SDS011;37338;47.426;19.204;2023-12-20T08:48:31;182.17;;;35.80;;
51266;SDS011;37338;47.426;19.204;2023-12-20T08:50:56;148.73;;;32.83;;
51266;SDS011;37338;47.426;19.204;2023-12-20T08:53:22;110.00;;;32.50;;
51266;SDS011;37338;47.426;19.204;2023-12-20T08:55:47;81.83;;;34.80;;
51266;SDS011;37338;47.426;19.204;2023-12-20T08:58:13;91.60;;;33.37;;
51266;SDS011;37338;47.426;19.204;2023-12-20T09:00:39;112.30;;;32.33;;
51266;SDS011;37338;47.426;19.204;2023-12-20T09:03:04;76.17;;;31.13;;
51266;SDS011;37338;47.426;19.204;2023-12-20T09:05:30;139.57;;;34.73;;
51266;SDS011;37338;47.426;19.204;2023-12-20T09:07:55;133.67;;;34.37;;
51266;SDS011;37338;47.426;19.204;2023-12-20T09:10:21;116.03;;;35.03;;
51266;SDS011;37338;47.426;19.204;2023-12-20T09:12:49;155.80;;;35.43;;
51266;SDS011;37338;47.426;19.204;2023-12-20T09:15:15;163.97;;;36.97;;
51266;SDS011;37338;47.426;19.204;2023-12-20T09:17:41;128.77;;;37.13;;
51266;SDS011;37338;47.426;19.204;2023-12-20T09:20:07;115.13;;;35.40;;
51266;SDS011;37338;47.426;19.204;2023-12-20T09:22:33;105.77;;;34.63;;
51266;SDS011;37338;47.426;19.204;2023-12-20T09:24:59;175.40;;;37.37;;
51266;SDS011;37338;47.426;19.204;2023-12-20T09:27:24;115.27;;;36.43;;
51266;SDS011;37338;47.426;19.204;2023-12-20T09:29:49;81.13;;;35.17;;
51266;SDS011;37338;47.426;19.204;2023-12-20T09:32:15;110.70;;;35.63;;
51266;SDS011;37338;47.426;19.204;2023-12-20T09:34:40;106.40;;;35.20;;
51266;SDS011;37338;47.426;19.204;2023-12-20T09:37:06;77.93;;;34.67;;
51266;SDS011;37338;47.426;19.204;2023-12-20T09:39:32;107.80;;;33.67;;
51266;SDS011;37338;47.426;19.204;2023-12-20T09:42:04;101.03;;;34.07;;
51266;SDS011;37338;47.426;19.204;2023-12-20T09:44:30;97.50;;;35.73;;
51266;SDS011;37338;47.426;19.204;2023-12-20T09:46:56;87.00;;;34.40;;
51266;SDS011;37338;47.426;19.204;2023-12-20T09:49:22;126.53;;;38.00;;
51266;SDS011;37338;47.426;19.204;2023-12-20T09:51:48;106.97;;;36.77;;
51266;SDS011;37338;47.426;19.204;2023-12-20T09:54:18;93.17;;;36.27;;
51266;SDS011;37338;47.426;19.204;2023-12-20T09:56:44;115.63;;;34.50;;
51266;SDS011;37338;47.426;19.204;2023-12-20T09:59:09;107.73;;;36.70;;
51266;SDS011;37338;47.426;19.204;2023-12-20T10:01:35;84.30;;;37.47;;
51266;SDS011;37338;47.426;19.204;2023-12-20T10:04:02;81.47;;;34.83;;
51266;SDS011;37338;47.426;19.204;2023-12-20T10:06:33;87.40;;;37.00;;
51266;SDS011;37338;47.426;19.204;2023-12-20T10:09:00;149.13;;;38.93;;
51266;SDS011;37338;47.426;19.204;2023-12-20T10:11:26;103.00;;;40.30;;
51266;SDS011;37338;47.426;19.204;2023-12-20T10:13:53;100.47;;;39.97;;
51266;SDS011;37338;47.426;19.204;2023-12-20T10:16:24;95.40;;;38.90;;
51266;SDS011;37338;47.426;19.204;2023-12-20T10:18:49;83.80;;;39.80;;
51266;SDS011;37338;47.426;19.204;2023-12-20T10:21:15;95.50;;;36.50;;
51266;SDS011;37338;47.426;19.204;2023-12-20T10:23:40;113.63;;;39.47;;
51266;SDS011;37338;47.426;19.204;2023-12-20T10:26:05;86.30;;;40.17;;
51266;SDS011;37338;47.426;19.204;2023-12-20T10:28:34;92.77;;;42.00;;
51266;SDS011;37338;47.426;19.204;2023-12-20T10:31:00;82.57;;;39.47;;
51266;SDS011;37338;47.426;19.204;2023-12-20T10:35:51;86.23;;;39.57;;
51266;SDS011;37338;47.426;19.204;2023-12-20T10:38:17;90.73;;;39.50;;
51266;SDS011;37338;47.426;19.204;2023-12-20T10:40:42;79.63;;;36.97;;
51266;SDS011;37338;47.426;19.204;2023-12-20T10:43:10;90.90;;;39.80;;
51266;SDS011;37338;47.426;19.204;2023-12-20T10:45:35;84.93;;;41.50;;
51266;SDS011;37338;47.426;19.204;2023-12-20T10:48:01;81.90;;;39.27;;
51266;SDS011;37338;47.426;19.204;2023-12-20T10:50:27;86.90;;;39.40;;
51266;SDS011;37338;47.426;19.204;2023-12-20T10:52:54;77.20;;;38.63;;
51266;SDS011;37338;47.426;19.204;2023-12-20T10:55:21;90.20;;;42.13;;
51266;SDS011;37338;47.426;19.204;2023-12-20T10:57:50;75.57;;;37.77;;
51266;SDS011;37338;47.426;19.204;2023-12-20T11:00:17;88.57;;;40.33;;
51266;SDS011;37338;47.426;19.204;2023-12-20T11:02:44;90.13;;;40.53;;
51266;SDS011;37338;47.426;19.204;2023-12-20T11:07:46;86.10;;;39.50;;
51266;SDS011;37338;47.426;19.204;2023-12-20T11:12:47;76.07;;;38.07;;
51266;SDS011;37338;47.426;19.204;2023-12-20T11:15:16;79.30;;;40.90;;
51266;SDS011;37338;47.426;19.204;2023-12-20T11:17:44;85.83;;;43.87;;
51266;SDS011;37338;47.426;19.204;2023-12-20T11:20:11;89.37;;;43.67;;
51266;SDS011;37338;47.426;19.204;2023-12-20T11:22:37;89.00;;;41.33;;
51266;SDS011;37338;47.426;19.204;2023-12-20T11:25:07;75.47;;;39.77;;
51266;SDS011;37338;47.426;19.204;2023-12-20T11:27:33;90.60;;;40.23;;
51266;SDS011;37338;47.426;19.204;2023-12-20T11:29:59;70.63;;;37.83;;
51266;SDS011;37338;47.426;19.204;2023-12-20T11:32:28;69.83;;;37.83;;
51266;SDS011;37338;47.426;19.204;2023-12-20T11:37:20;77.20;;;41.77;;
51266;SDS011;37338;47.426;19.204;2023-12-20T11:39:53;74.13;;;41.20;;
51266;SDS011;37338;47.426;19.204;2023-12-20T11:42:20;76.27;;;39.73;;
51266;SDS011;37338;47.426;19.204;2023-12-20T11:44:45;69.80;;;38.30;;
51266;SDS011;37338;47.426;19.204;2023-12-20T11:47:11;72.90;;;39.20;;
51266;SDS011;37338;47.426;19.204;2023-12-20T11:49:38;69.13;;;39.30;;
51266;SDS011;37338;47.426;19.204;2023-12-20T11:52:04;66.83;;;37.40;;
51266;SDS011;37338;47.426;19.204;2023-12-20T11:54:30;66.63;;;38.10;;
51266;SDS011;37338;47.426;19.204;2023-12-20T11:56:55;71.10;;;40.03;;
51266;SDS011;37338;47.426;19.204;2023-12-20T11:59:20;70.93;;;38.70;;
51266;SDS011;37338;47.426;19.204;2023-12-20T12:01:49;71.20;;;39.77;;
51266;SDS011;37338;47.426;19.204;2023-12-20T12:04:16;140.20;;;40.33;;
51266;SDS011;37338;47.426;19.204;2023-12-20T12:06:42;77.97;;;42.43;;
51266;SDS011;37338;47.426;19.204;2023-12-20T12:09:08;83.10;;;43.87;;
51266;SDS011;37338;47.426;19.204;2023-12-20T12:11:33;80.23;;;41.27;;
51266;SDS011;37338;47.426;19.204;2023-12-20T12:13:59;73.23;;;39.73;;
51266;SDS011;37338;47.426;19.204;2023-12-20T12:16:25;105.73;;;41.80;;
51266;SDS011;37338;47.426;19.204;2023-12-20T12:18:56;84.27;;;43.13;;
51266;SDS011;37338;47.426;19.204;2023-12-20T12:21:22;79.87;;;41.00;;
51266;SDS011;37338;47.426;19.204;2023-12-20T12:23:47;105.40;;;42.17;;
51266;SDS011;37338;47.426;19.204;2023-12-20T12:26:13;94.00;;;39.80;;
51266;SDS011;37338;47.426;19.204;2023-12-20T12:28:41;89.10;;;42.10;;
51266;SDS011;37338;47.426;19.204;2023-12-20T12:31:07;82.70;;;44.67;;
51266;SDS011;37338;47.426;19.204;2023-12-20T12:33:33;73.60;;;40.40;;
51266;SDS011;37338;47.426;19.204;2023-12-20T12:35:59;77.13;;;41.47;;
51266;SDS011;37338;47.426;19.204;2023-12-20T12:38:29;72.90;;;41.77;;
51266;SDS011;37338;47.426;19.204;2023-12-20T12:40:55;78.77;;;43.07;;
51266;SDS011;37338;47.426;19.204;2023-12-20T12:43:20;79.50;;;45.20;;
51266;SDS011;37338;47.426;19.204;2023-12-20T12:45:47;80.00;;;43.20;;
51266;SDS011;37338;47.426;19.204;2023-12-20T12:48:13;78.97;;;42.77;;
51266;SDS011;37338;47.426;19.204;2023-12-20T12:50:39;74.50;;;41.37;;
51266;SDS011;37338;47.426;19.204;2023-12-20T12:53:04;68.60;;;41.97;;
51266;SDS011;37338;47.426;19.204;2023-12-20T12:55:29;74.87;;;42.90;;
51266;SDS011;37338;47.426;19.204;2023-12-20T12:57:55;75.00;;;40.40;;
51266;SDS011;37338;47.426;19.204;2023-12-20T13:00:20;67.70;;;40.37;;
51266;SDS011;37338;47.426;19.204;2023-12-20T13:02:46;74.07;;;41.17;;
51266;SDS011;37338;47.426;19.204;2023-12-20T13:05:12;78.23;;;42.23;;
51266;SDS011;37338;47.426;19.204;2023-12-20T13:07:37;73.43;;;41.57;;
51266;SDS011;37338;47.426;19.204;2023-12-20T13:10:04;77.77;;;42.40;;
51266;SDS011;37338;47.426;19.204;2023-12-20T13:12:30;76.40;;;45.90;;
51266;SDS011;37338;47.426;19.204;2023-12-20T13:14:57;76.20;;;44.07;;
51266;SDS011;37338;47.426;19.204;2023-12-20T13:17:22;86.67;;;48.47;;
51266;SDS011;37338;47.426;19.204;2023-12-20T13:19:47;86.93;;;49.57;;
51266;SDS011;37338;47.426;19.204;2023-12-20T13:22:12;81.27;;;46.80;;
51266;SDS011;37338;47.426;19.204;2023-12-20T13:24:38;78.00;;;45.27;;
51266;SDS011;37338;47.426;19.204;2023-12-20T13:27:03;80.00;;;45.73;;
51266;SDS011;37338;47.426;19.204;2023-12-20T13:29:29;82.10;;;43.63;;
51266;SDS011;37338;47.426;19.204;2023-12-20T13:31:54;80.20;;;42.20;;
51266;SDS011;37338;47.426;19.204;2023-12-20T13:34:19;76.37;;;43.50;;
51266;SDS011;37338;47.426;19.204;2023-12-20T13:36:45;76.73;;;43.13;;
51266;SDS011;37338;47.426;19.204;2023-12-20T13:39:12;78.03;;;42.30;;
51266;SDS011;37338;47.426;19.204;2023-12-20T13:41:37;68.10;;;37.70;;
51266;SDS011;37338;47.426;19.204;2023-12-20T13:44:02;78.47;;;42.10;;
51266;SDS011;37338;47.426;19.204;2023-12-20T13:46:28;74.10;;;39.20;;
51266;SDS011;37338;47.426;19.204;2023-12-20T13:48:54;71.17;;;37.13;;
51266;SDS011;37338;47.426;19.204;2023-12-20T13:51:19;69.07;;;34.23;;
51266;SDS011;37338;47.426;19.204;2023-12-20T13:53:45;56.70;;;32.03;;
51266;SDS011;37338;47.426;19.204;2023-12-20T13:56:11;58.63;;;30.67;;
51266;SDS011;37338;47.426;19.204;2023-12-20T13:58:36;51.17;;;29.77;;
51266;SDS011;37338;47.426;19.204;2023-12-20T14:01:02;43.93;;;27.67;;
51266;SDS011;37338;47.426;19.204;2023-12-20T14:03:27;48.63;;;29.27;;